Cmb Ariane — VRIT7 — position and weather

sailwx.info

Track history (hours):
 
Tides and Currents Weather Stations Pressure Air Temp Water Temp Dewpoint Dewpoint Depression Visibility Wind Speed Wind Dir Waves Ship Positions

Cmb Ariane

Last reported at 2015-Apr-17 19:22 UTC. Time now 2015-Apr-20 00:46 UTC.
Position N 38°15' W 010°06'.

Length 180 m; draft 9.4 m.

Type: Cargo ship. MMSI: 477229600.

Date/timePositionNaut miles runAvg speedWind from/ knotsBaromVisibWave heightAir tempDewpointWater temp
2015-Apr-17 19:22N 38°15' W 010°06'8 9.8
2015-Apr-17 18:33N 38°23' W 010°05'1010.0
2015-Apr-17 17:33N 38°33' W 010°05'1010.2
2015-Apr-17 16:33N 38°43' W 010°05'1010.0
2015-Apr-17 15:33N 38°53' W 010°05'10 9.6
2015-Apr-17 14:33N 39°03' W 010°06'9 9.3
2015-Apr-17 13:33N 39°12' W 010°06'10 9.5
2015-Apr-17 12:32N 39°22' W 010°06'  
2015-Apr-15 01:34N 48°06' W 006°26'9 9.1
2015-Apr-15 00:34N 48°14' W 006°19'26 8.5
2015-Apr-14 21:34N 48°37' W 006°01'19 9.4
2015-Apr-14 19:34N 48°54' W 005°48'1010.1
2015-Apr-14 18:33N 48°59' W 005°35'66 9.2
2015-Apr-14 11:22N 49°32' W 004°07'18 9.3
2015-Apr-14 09:24N 49°42' W 003°43'2810.0
2015-Apr-14 06:34N 49°56' W 003°05'9 9.0
2015-Apr-14 05:34N 49°60' W 002°52'8 8.4
2015-Apr-14 04:34N 50°02' W 002°39'8 7.6
2015-Apr-14 03:33N 50°04' W 002°28'7 7.2
2015-Apr-14 02:33N 50°06' W 002°17'8 7.1
2015-Apr-14 01:30N 50°08' W 002°06'7 7.8
2015-Apr-14 00:34N 50°10' W 001°55'9 8.9
2015-Apr-13 23:34N 50°12' W 001°41'1010.0
2015-Apr-13 22:34N 50°15' W 001°26'1110.9
2015-Apr-13 21:33N 50°18' W 001°10'1211.6
2015-Apr-13 20:31N 50°21' W 000°52'1110.9
2015-Apr-13 19:31N 50°24' W 000°35'31 9.5
2015-Apr-13 16:15N 50°32' E 000°12'6 8.6
2015-Apr-13 15:33N 50°34' E 000°21'9 8.7
2015-Apr-13 14:33N 50°36' E 000°34'9 9.4
2015-Apr-13 13:33N 50°42' E 000°45'1010.3
2015-Apr-13 12:34N 50°49' E 000°58'1511.0
2015-Apr-13 11:13N 50°58' E 001°16'710.7
2015-Apr-13 10:34N 51°03' E 001°25'10 9.8
2015-Apr-13 09:33N 51°09' E 001°37'9 9.0
2015-Apr-13 08:34N 51°15' E 001°47'9 8.8
2015-Apr-13 07:34N 51°23' E 001°53'9 8.7
2015-Apr-13 06:34N 51°30' E 002°00'9 9.3
2015-Apr-13 05:33N 51°37' E 002°11'12 9.7
2015-Apr-13 04:18N 51°46' E 002°24'76 9.3
2015-Apr-12 20:09N 52°45' E 003°42'5 7.5
2015-Apr-12 19:31N 52°49' E 003°47'7 6.8
2015-Apr-12 18:29N 52°55' E 003°54'6 6.9
2015-Apr-12 17:33N 52°59' E 004°02'7 7.0
2015-Apr-12 16:33N 53°03' E 004°11'7 7.4
2015-Apr-12 15:33N 53°08' E 004°20'8 7.9
2015-Apr-12 14:31N 53°15' E 004°27'8 8.0
2015-Apr-12 13:30N 53°23' E 004°31'8 7.9
2015-Apr-12 12:32N 53°30' E 004°36'8 8.0
2015-Apr-12 11:34N 53°37' E 004°40'8 8.0
2015-Apr-12 10:33N 53°45' E 004°44'9 8.2
2015-Apr-12 09:24N 53°54' E 004°49'7 8.6
2015-Apr-12 08:33N 54°01' E 004°52'9 9.0
2015-Apr-12 07:32N 54°10' E 004°57'9 9.0
2015-Apr-12 06:33N 54°18' E 005°03'269 8.1
2015-Apr-10 21:31N 57°49' E 010°02'8 8.7
2015-Apr-10 20:33N 57°49' E 010°18'8 8.5
2015-Apr-10 19:33N 57°49' E 010°34'7 7.4
2015-Apr-10 18:33N 57°47' E 010°47'9 8.2
2015-Apr-10 17:25N 57°40' E 010°35'0 0.5
2015-Apr-10 16:30N 57°40' E 010°35'0 0.0
2015-Apr-10 14:30N 57°40' E 010°35'0 0.0
2015-Apr-10 13:06N 57°39' E 010°35'0 0.0
2015-Apr-10 11:27N 57°39' E 010°35'0 0.0
2015-Apr-10 10:33N 57°39' E 010°35'0 0.0
2015-Apr-10 09:24N 57°39' E 010°35'0 0.0
2015-Apr-10 08:18N 57°39' E 010°35'11 6.5
2015-Apr-10 06:33N 57°35' E 010°55'9 8.9
2015-Apr-10 05:33N 57°33' E 011°11'9 9.2
2015-Apr-10 04:33N 57°28' E 011°26'9 9.2
2015-Apr-10 03:33N 57°20' E 011°32'9 9.0
2015-Apr-10 02:33N 57°11' E 011°37'9 8.7
2015-Apr-10 01:34N 57°03' E 011°43'9 8.7
2015-Apr-10 00:33N 56°55' E 011°48'8 8.3
2015-Apr-09 23:33N 56°47' E 011°53'6 6.4
2015-Apr-09 22:34N 56°42' E 011°47'9 9.3
2015-Apr-09 21:33N 56°36' E 011°33'21 9.7
2015-Apr-09 19:24N 56°22' E 011°06'9712.3
2015-Apr-09 11:31N 54°45' E 010°53'9 4.4
2015-Apr-09 09:33N 54°39' E 011°03'8 8.0
2015-Apr-09 08:33N 54°35' E 011°15'8 8.2
2015-Apr-09 07:33N 54°32' E 011°28'8 8.1
2015-Apr-09 06:33N 54°28' E 011°40'8 7.8
2015-Apr-09 05:33N 54°27' E 011°53'9 9.0
2015-Apr-09 04:33N 54°27' E 012°09'9 9.3
2015-Apr-09 03:33N 54°36' E 012°14'9 9.3
2015-Apr-09 02:33N 54°41' E 012°27'10 9.8
2015-Apr-09 01:33N 54°47' E 012°41'9 9.2
2015-Apr-09 00:33N 54°50' E 012°56'9 9.4
2015-Apr-08 23:33N 54°53' E 013°12'9 9.3
2015-Apr-08 22:33N 54°53' E 013°28'1010.0
2015-Apr-08 21:33N 54°49' E 013°44'9 9.1
2015-Apr-08 20:33N 54°44' E 013°57'10 9.7
2015-Apr-08 19:33N 54°40' E 014°12'10 9.4
2015-Apr-08 18:28N 54°38' E 014°30'10 9.8
2015-Apr-08 17:29N 54°40' E 014°46'9 9.9
2015-Apr-08 16:32N 54°41' E 015°02'1410.0
2015-Apr-08 15:07N 54°43' E 015°27'9 9.9
2015-Apr-08 14:11N 54°45' E 015°42'72 9.0
2015-Apr-08 06:11N 54°57' E 017°45'6 8.6
2015-Apr-08 05:32N 54°58' E 017°55'8 8.4
2015-Apr-08 04:32N 54°58' E 018°09'8 8.4
2015-Apr-08 03:33N 54°58' E 018°24'8 8.3
2015-Apr-08 02:34N 54°57' E 018°38'9 8.6
2015-Apr-08 01:33N 54°51' E 018°50'8 8.2
2015-Apr-08 00:34N 54°45' E 018°58'9 9.1
2015-Apr-07 23:33N 54°36' E 018°54'1010.4
2015-Apr-07 22:33N 54°28' E 018°42'4 3.7
2015-Apr-07 21:33N 54°24' E 018°40'0 0.4
2015-Apr-07 20:33N 54°24' E 018°40'0 0.0
2015-Apr-07 19:33N 54°24' E 018°40'  
Track history (hours):
 
Tides and Currents Weather Stations Pressure Air Temp Water Temp Dewpoint Dewpoint Depression Visibility Wind Speed Wind Dir Waves Ship Positions

Cmb Ariane

Last reported at 2015-Apr-17 19:22 UTC. Time now 2015-Apr-20 00:46 UTC.
Position N 38°15' W 010°06'.

Length 180 m; draft 9.4 m.

Type: Cargo ship. MMSI: 477229600.

Date/timePositionNaut miles runAvg speedWind from/ knotsBaromVisibWave heightAir tempDewpointWater temp
2015-Apr-17 19:22N 38°15' W 010°06'8 9.8
2015-Apr-17 18:33N 38°23' W 010°05'1010.0
2015-Apr-17 17:33N 38°33' W 010°05'1010.2
2015-Apr-17 16:33N 38°43' W 010°05'1010.0
2015-Apr-17 15:33N 38°53' W 010°05'10 9.6
2015-Apr-17 14:33N 39°03' W 010°06'9 9.3
2015-Apr-17 13:33N 39°12' W 010°06'10 9.5
2015-Apr-17 12:32N 39°22' W 010°06'  
2015-Apr-15 01:34N 48°06' W 006°26'9 9.1
2015-Apr-15 00:34N 48°14' W 006°19'26 8.5
2015-Apr-14 21:34N 48°37' W 006°01'19 9.4
2015-Apr-14 19:34N 48°54' W 005°48'1010.1
2015-Apr-14 18:33N 48°59' W 005°35'66 9.2
2015-Apr-14 11:22N 49°32' W 004°07'18 9.3
2015-Apr-14 09:24N 49°42' W 003°43'2810.0
2015-Apr-14 06:34N 49°56' W 003°05'9 9.0
2015-Apr-14 05:34N 49°60' W 002°52'8 8.4
2015-Apr-14 04:34N 50°02' W 002°39'8 7.6
2015-Apr-14 03:33N 50°04' W 002°28'7 7.2
2015-Apr-14 02:33N 50°06' W 002°17'8 7.1
2015-Apr-14 01:30N 50°08' W 002°06'7 7.8
2015-Apr-14 00:34N 50°10' W 001°55'9 8.9
2015-Apr-13 23:34N 50°12' W 001°41'1010.0
2015-Apr-13 22:34N 50°15' W 001°26'1110.9
2015-Apr-13 21:33N 50°18' W 001°10'1211.6
2015-Apr-13 20:31N 50°21' W 000°52'1110.9
2015-Apr-13 19:31N 50°24' W 000°35'31 9.5
2015-Apr-13 16:15N 50°32' E 000°12'6 8.6
2015-Apr-13 15:33N 50°34' E 000°21'9 8.7
2015-Apr-13 14:33N 50°36' E 000°34'9 9.4
2015-Apr-13 13:33N 50°42' E 000°45'1010.3
2015-Apr-13 12:34N 50°49' E 000°58'1511.0
2015-Apr-13 11:13N 50°58' E 001°16'710.7
2015-Apr-13 10:34N 51°03' E 001°25'10 9.8
2015-Apr-13 09:33N 51°09' E 001°37'9 9.0
2015-Apr-13 08:34N 51°15' E 001°47'9 8.8
2015-Apr-13 07:34N 51°23' E 001°53'9 8.7
2015-Apr-13 06:34N 51°30' E 002°00'9 9.3
2015-Apr-13 05:33N 51°37' E 002°11'12 9.7
2015-Apr-13 04:18N 51°46' E 002°24'76 9.3
2015-Apr-12 20:09N 52°45' E 003°42'5 7.5
2015-Apr-12 19:31N 52°49' E 003°47'7 6.8
2015-Apr-12 18:29N 52°55' E 003°54'6 6.9
2015-Apr-12 17:33N 52°59' E 004°02'7 7.0
2015-Apr-12 16:33N 53°03' E 004°11'7 7.4
2015-Apr-12 15:33N 53°08' E 004°20'8 7.9
2015-Apr-12 14:31N 53°15' E 004°27'8 8.0
2015-Apr-12 13:30N 53°23' E 004°31'8 7.9
2015-Apr-12 12:32N 53°30' E 004°36'8 8.0
2015-Apr-12 11:34N 53°37' E 004°40'8 8.0
2015-Apr-12 10:33N 53°45' E 004°44'9 8.2
2015-Apr-12 09:24N 53°54' E 004°49'7 8.6
2015-Apr-12 08:33N 54°01' E 004°52'9 9.0
2015-Apr-12 07:32N 54°10' E 004°57'9 9.0
2015-Apr-12 06:33N 54°18' E 005°03'269 8.1
2015-Apr-10 21:31N 57°49' E 010°02'8 8.7
2015-Apr-10 20:33N 57°49' E 010°18'8 8.5
2015-Apr-10 19:33N 57°49' E 010°34'7 7.4
2015-Apr-10 18:33N 57°47' E 010°47'9 8.2
2015-Apr-10 17:25N 57°40' E 010°35'0 0.5
2015-Apr-10 16:30N 57°40' E 010°35'0 0.0
2015-Apr-10 14:30N 57°40' E 010°35'0 0.0
2015-Apr-10 13:06N 57°39' E 010°35'0 0.0
2015-Apr-10 11:27N 57°39' E 010°35'0 0.0
2015-Apr-10 10:33N 57°39' E 010°35'0 0.0
2015-Apr-10 09:24N 57°39' E 010°35'0 0.0
2015-Apr-10 08:18N 57°39' E 010°35'11 6.5
2015-Apr-10 06:33N 57°35' E 010°55'9 8.9
2015-Apr-10 05:33N 57°33' E 011°11'9 9.2
2015-Apr-10 04:33N 57°28' E 011°26'9 9.2
2015-Apr-10 03:33N 57°20' E 011°32'9 9.0
2015-Apr-10 02:33N 57°11' E 011°37'9 8.7
2015-Apr-10 01:34N 57°03' E 011°43'9 8.7
2015-Apr-10 00:33N 56°55' E 011°48'8 8.3
2015-Apr-09 23:33N 56°47' E 011°53'6 6.4
2015-Apr-09 22:34N 56°42' E 011°47'9 9.3
2015-Apr-09 21:33N 56°36' E 011°33'21 9.7
2015-Apr-09 19:24N 56°22' E 011°06'9712.3
2015-Apr-09 11:31N 54°45' E 010°53'9 4.4
2015-Apr-09 09:33N 54°39' E 011°03'8 8.0
2015-Apr-09 08:33N 54°35' E 011°15'8 8.2
2015-Apr-09 07:33N 54°32' E 011°28'8 8.1
2015-Apr-09 06:33N 54°28' E 011°40'8 7.8
2015-Apr-09 05:33N 54°27' E 011°53'9 9.0
2015-Apr-09 04:33N 54°27' E 012°09'9 9.3
2015-Apr-09 03:33N 54°36' E 012°14'9 9.3
2015-Apr-09 02:33N 54°41' E 012°27'10 9.8
2015-Apr-09 01:33N 54°47' E 012°41'9 9.2
2015-Apr-09 00:33N 54°50' E 012°56'9 9.4
2015-Apr-08 23:33N 54°53' E 013°12'9 9.3
2015-Apr-08 22:33N 54°53' E 013°28'1010.0
2015-Apr-08 21:33N 54°49' E 013°44'9 9.1
2015-Apr-08 20:33N 54°44' E 013°57'10 9.7
2015-Apr-08 19:33N 54°40' E 014°12'10 9.4
2015-Apr-08 18:28N 54°38' E 014°30'10 9.8
2015-Apr-08 17:29N 54°40' E 014°46'9 9.9
2015-Apr-08 16:32N 54°41' E 015°02'1410.0
2015-Apr-08 15:07N 54°43' E 015°27'9 9.9
2015-Apr-08 14:11N 54°45' E 015°42'72 9.0
2015-Apr-08 06:11N 54°57' E 017°45'6 8.6
2015-Apr-08 05:32N 54°58' E 017°55'8 8.4
2015-Apr-08 04:32N 54°58' E 018°09'8 8.4
2015-Apr-08 03:33N 54°58' E 018°24'8 8.3
2015-Apr-08 02:34N 54°57' E 018°38'9 8.6
2015-Apr-08 01:33N 54°51' E 018°50'8 8.2
2015-Apr-08 00:34N 54°45' E 018°58'9 9.1
2015-Apr-07 23:33N 54°36' E 018°54'1010.4
2015-Apr-07 22:33N 54°28' E 018°42'4 3.7
2015-Apr-07 21:33N 54°24' E 018°40'0 0.4
2015-Apr-07 20:33N 54°24' E 018°40'0 0.0
2015-Apr-07 19:33N 54°24' E 018°40'  

Dump ship's entire track history